CRP2 weather

R.M. of Pipestone Airport
Reston, Manitoba, Canada

Public forecast

Using degrees Celsius for public forecast. Weather courtesy of forecast.io.

METAR (pilot weather report)

Closest report is Brandon Municipal Airport, 47.1 nm (87.2 km) ENE. Retrieved 2019/05/26 23:00 UTC (2 hours ago):

CYBR 262300Z 14005KT 130V200 15SM FEW025 BKN100 09/05 A3020 RMK SC2AC5 SLP243

TAF (pilot weather forecast)

Forecast is more than 12 hours old.

Closest forecast is Brandon Municipal Airport, 47.1 nm (87.2 km) ENE. Retrieved 2019/05/26 00:42 UTC (24 hours ago):

TAF CYBR 262339Z 2700/2712 15006KT P6SM FEW025 BKN100 BECMG 2700/2702 06008KT FEW120 FM270800 03005KT P6SM SKC TEMPO 2708/2712 2SM BR PROB30 2710/2712 1/2SM FG RMK NXT FCST BY 270600Z